sensor_id;sensor_type;location;lat;lon;timestamp;P1;durP1;ratioP1;P2;durP2;ratioP2
29370;SDS011;16357;52.188;7.838;2022-12-29T00:01:37;2.00;;;1.75;;
29370;SDS011;16357;52.188;7.838;2022-12-29T00:04:04;1.85;;;1.75;;
29370;SDS011;16357;52.188;7.838;2022-12-29T00:06:39;1.85;;;1.75;;
29370;SDS011;16357;52.188;7.838;2022-12-29T00:09:06;1.85;;;1.70;;
29370;SDS011;16357;52.188;7.838;2022-12-29T00:11:33;1.65;;;1.50;;
29370;SDS011;16357;52.188;7.838;2022-12-29T00:13:59;2.58;;;1.95;;
29370;SDS011;16357;52.188;7.838;2022-12-29T00:16:51;1.80;;;1.70;;
29370;SDS011;16357;52.188;7.838;2022-12-29T00:19:17;2.13;;;1.73;;
29370;SDS011;16357;52.188;7.838;2022-12-29T00:22:03;2.33;;;1.95;;
29370;SDS011;16357;52.188;7.838;2022-12-29T00:24:48;2.20;;;1.73;;
29370;SDS011;16357;52.188;7.838;2022-12-29T00:27:28;1.42;;;1.33;;
29370;SDS011;16357;52.188;7.838;2022-12-29T00:30:15;2.60;;;1.42;;
29370;SDS011;16357;52.188;7.838;2022-12-29T00:33:12;1.40;;;1.30;;
29370;SDS011;16357;52.188;7.838;2022-12-29T00:38:28;1.50;;;1.40;;
29370;SDS011;16357;52.188;7.838;2022-12-29T00:41:15;2.05;;;1.30;;
29370;SDS011;16357;52.188;7.838;2022-12-29T00:44:01;1.90;;;1.60;;
29370;SDS011;16357;52.188;7.838;2022-12-29T00:46:33;3.58;;;1.30;;
29370;SDS011;16357;52.188;7.838;2022-12-29T00:49:01;1.50;;;1.20;;
29370;SDS011;16357;52.188;7.838;2022-12-29T00:51:47;1.63;;;1.40;;
29370;SDS011;16357;52.188;7.838;2022-12-29T00:54:14;4.22;;;1.55;;
29370;SDS011;16357;52.188;7.838;2022-12-29T00:56:43;2.00;;;1.27;;
29370;SDS011;16357;52.188;7.838;2022-12-29T00:59:15;1.67;;;1.30;;
29370;SDS011;16357;52.188;7.838;2022-12-29T01:01:43;2.03;;;1.05;;
29370;SDS011;16357;52.188;7.838;2022-12-29T01:04:10;1.70;;;1.20;;
29370;SDS011;16357;52.188;7.838;2022-12-29T01:06:37;2.25;;;1.17;;
29370;SDS011;16357;52.188;7.838;2022-12-29T01:09:05;1.35;;;1.00;;
29370;SDS011;16357;52.188;7.838;2022-12-29T01:11:52;1.20;;;1.10;;
29370;SDS011;16357;52.188;7.838;2022-12-29T01:14:18;1.10;;;1.00;;
29370;SDS011;16357;52.188;7.838;2022-12-29T01:16:46;1.50;;;0.98;;
29370;SDS011;16357;52.188;7.838;2022-12-29T01:19:13;1.27;;;1.17;;
29370;SDS011;16357;52.188;7.838;2022-12-29T01:21:43;1.05;;;0.90;;
29370;SDS011;16357;52.188;7.838;2022-12-29T01:24:10;1.20;;;0.90;;
29370;SDS011;16357;52.188;7.838;2022-12-29T01:26:36;1.70;;;1.30;;
29370;SDS011;16357;52.188;7.838;2022-12-29T01:29:03;1.73;;;1.00;;
29370;SDS011;16357;52.188;7.838;2022-12-29T01:31:29;1.27;;;1.17;;
29370;SDS011;16357;52.188;7.838;2022-12-29T01:33:55;1.73;;;1.25;;
29370;SDS011;16357;52.188;7.838;2022-12-29T01:36:23;1.30;;;0.95;;
29370;SDS011;16357;52.188;7.838;2022-12-29T01:38:50;1.23;;;1.08;;
29370;SDS011;16357;52.188;7.838;2022-12-29T01:41:17;2.80;;;1.33;;
29370;SDS011;16357;52.188;7.838;2022-12-29T01:43:51;0.95;;;0.90;;
29370;SDS011;16357;52.188;7.838;2022-12-29T01:46:40;1.33;;;1.08;;
29370;SDS011;16357;52.188;7.838;2022-12-29T01:49:13;0.80;;;0.80;;
29370;SDS011;16357;52.188;7.838;2022-12-29T01:54:26;1.75;;;1.20;;
29370;SDS011;16357;52.188;7.838;2022-12-29T01:56:57;1.13;;;1.02;;
29370;SDS011;16357;52.188;7.838;2022-12-29T01:59:31;1.40;;;1.20;;
29370;SDS011;16357;52.188;7.838;2022-12-29T02:02:00;1.35;;;1.25;;
29370;SDS011;16357;52.188;7.838;2022-12-29T02:04:28;2.15;;;1.42;;
29370;SDS011;16357;52.188;7.838;2022-12-29T02:07:03;1.30;;;1.13;;
29370;SDS011;16357;52.188;7.838;2022-12-29T02:09:33;3.30;;;1.38;;
29370;SDS011;16357;52.188;7.838;2022-12-29T02:12:00;2.03;;;1.35;;
29370;SDS011;16357;52.188;7.838;2022-12-29T02:14:26;1.23;;;1.10;;
29370;SDS011;16357;52.188;7.838;2022-12-29T02:22:27;1.13;;;1.02;;
29370;SDS011;16357;52.188;7.838;2022-12-29T02:27:54;1.58;;;1.20;;
29370;SDS011;16357;52.188;7.838;2022-12-29T02:39:04;1.65;;;1.00;;
29370;SDS011;16357;52.188;7.838;2022-12-29T02:44:37;0.98;;;0.88;;
29370;SDS011;16357;52.188;7.838;2022-12-29T02:50:01;1.00;;;0.90;;
29370;SDS011;16357;52.188;7.838;2022-12-29T02:53:06;1.77;;;0.90;;
29370;SDS011;16357;52.188;7.838;2022-12-29T02:55:35;2.58;;;1.08;;
29370;SDS011;16357;52.188;7.838;2022-12-29T03:00:36;0.90;;;0.90;;
29370;SDS011;16357;52.188;7.838;2022-12-29T03:03:21;0.70;;;0.70;;
29370;SDS011;16357;52.188;7.838;2022-12-29T03:06:12;1.00;;;0.90;;
29370;SDS011;16357;52.188;7.838;2022-12-29T03:11:48;0.93;;;0.70;;
29370;SDS011;16357;52.188;7.838;2022-12-29T03:14:39;1.05;;;0.70;;
29370;SDS011;16357;52.188;7.838;2022-12-29T03:17:28;2.70;;;0.68;;
29370;SDS011;16357;52.188;7.838;2022-12-29T03:20:03;1.50;;;0.70;;
29370;SDS011;16357;52.188;7.838;2022-12-29T03:22:35;0.70;;;0.70;;
29370;SDS011;16357;52.188;7.838;2022-12-29T03:25:10;0.80;;;0.70;;
29370;SDS011;16357;52.188;7.838;2022-12-29T03:27:43;2.80;;;0.90;;
29370;SDS011;16357;52.188;7.838;2022-12-29T03:30:13;0.80;;;0.77;;
29370;SDS011;16357;52.188;7.838;2022-12-29T03:32:50;1.27;;;0.70;;
29370;SDS011;16357;52.188;7.838;2022-12-29T03:35:22;1.15;;;0.75;;
29370;SDS011;16357;52.188;7.838;2022-12-29T03:40:37;0.82;;;0.82;;
29370;SDS011;16357;52.188;7.838;2022-12-29T03:43:07;0.70;;;0.70;;
29370;SDS011;16357;52.188;7.838;2022-12-29T03:45:35;0.70;;;0.52;;
29370;SDS011;16357;52.188;7.838;2022-12-29T03:48:01;1.48;;;0.70;;
29370;SDS011;16357;52.188;7.838;2022-12-29T03:50:28;0.60;;;0.60;;
29370;SDS011;16357;52.188;7.838;2022-12-29T03:52:54;2.10;;;0.60;;
29370;SDS011;16357;52.188;7.838;2022-12-29T03:55:20;0.77;;;0.60;;
29370;SDS011;16357;52.188;7.838;2022-12-29T03:57:47;0.90;;;0.80;;
29370;SDS011;16357;52.188;7.838;2022-12-29T04:00:13;1.17;;;0.80;;
29370;SDS011;16357;52.188;7.838;2022-12-29T04:02:40;0.57;;;0.55;;
29370;SDS011;16357;52.188;7.838;2022-12-29T04:05:07;1.05;;;0.60;;
29370;SDS011;16357;52.188;7.838;2022-12-29T04:07:33;0.70;;;0.57;;
29370;SDS011;16357;52.188;7.838;2022-12-29T04:10:00;1.42;;;0.68;;
29370;SDS011;16357;52.188;7.838;2022-12-29T04:12:26;1.15;;;0.60;;
29370;SDS011;16357;52.188;7.838;2022-12-29T04:14:53;2.05;;;0.60;;
29370;SDS011;16357;52.188;7.838;2022-12-29T04:17:19;1.48;;;0.90;;
29370;SDS011;16357;52.188;7.838;2022-12-29T04:19:46;1.13;;;0.80;;
29370;SDS011;16357;52.188;7.838;2022-12-29T04:22:12;1.60;;;1.00;;
29370;SDS011;16357;52.188;7.838;2022-12-29T04:24:39;1.58;;;0.80;;
29370;SDS011;16357;52.188;7.838;2022-12-29T04:27:05;0.98;;;0.60;;
29370;SDS011;16357;52.188;7.838;2022-12-29T04:29:32;2.00;;;0.77;;
29370;SDS011;16357;52.188;7.838;2022-12-29T04:31:59;1.42;;;0.88;;
29370;SDS011;16357;52.188;7.838;2022-12-29T04:34:25;2.38;;;1.05;;
29370;SDS011;16357;52.188;7.838;2022-12-29T04:36:52;1.30;;;0.90;;
29370;SDS011;16357;52.188;7.838;2022-12-29T04:39:18;1.40;;;0.82;;
29370;SDS011;16357;52.188;7.838;2022-12-29T04:41:45;3.67;;;1.33;;
29370;SDS011;16357;52.188;7.838;2022-12-29T04:44:12;2.67;;;0.90;;
29370;SDS011;16357;52.188;7.838;2022-12-29T04:46:39;2.30;;;0.80;;
29370;SDS011;16357;52.188;7.838;2022-12-29T04:49:05;1.88;;;0.80;;
29370;SDS011;16357;52.188;7.838;2022-12-29T04:51:34;1.85;;;0.80;;
29370;SDS011;16357;52.188;7.838;2022-12-29T04:54:01;1.63;;;0.70;;
29370;SDS011;16357;52.188;7.838;2022-12-29T04:56:28;3.38;;;1.02;;
29370;SDS011;16357;52.188;7.838;2022-12-29T04:58:54;1.20;;;0.77;;
29370;SDS011;16357;52.188;7.838;2022-12-29T05:01:20;2.72;;;0.90;;
29370;SDS011;16357;52.188;7.838;2022-12-29T05:03:49;1.35;;;0.73;;
29370;SDS011;16357;52.188;7.838;2022-12-29T05:06:16;1.33;;;0.80;;
29370;SDS011;16357;52.188;7.838;2022-12-29T05:08:43;2.58;;;0.60;;
29370;SDS011;16357;52.188;7.838;2022-12-29T05:11:10;2.25;;;0.90;;
29370;SDS011;16357;52.188;7.838;2022-12-29T05:13:36;1.52;;;0.90;;
29370;SDS011;16357;52.188;7.838;2022-12-29T05:16:02;1.38;;;0.80;;
29370;SDS011;16357;52.188;7.838;2022-12-29T05:18:29;2.28;;;1.10;;
29370;SDS011;16357;52.188;7.838;2022-12-29T05:20:56;2.30;;;0.88;;
29370;SDS011;16357;52.188;7.838;2022-12-29T05:23:22;1.38;;;0.50;;
29370;SDS011;16357;52.188;7.838;2022-12-29T05:25:48;1.25;;;0.75;;
29370;SDS011;16357;52.188;7.838;2022-12-29T05:28:15;1.38;;;0.60;;
29370;SDS011;16357;52.188;7.838;2022-12-29T05:30:43;1.25;;;0.80;;
29370;SDS011;16357;52.188;7.838;2022-12-29T05:33:10;3.42;;;0.60;;
29370;SDS011;16357;52.188;7.838;2022-12-29T05:35:37;0.68;;;0.50;;
29370;SDS011;16357;52.188;7.838;2022-12-29T05:38:04;1.77;;;0.65;;
29370;SDS011;16357;52.188;7.838;2022-12-29T05:40:30;0.60;;;0.60;;
29370;SDS011;16357;52.188;7.838;2022-12-29T05:42:57;1.17;;;0.60;;
29370;SDS011;16357;52.188;7.838;2022-12-29T05:45:24;1.48;;;0.50;;
29370;SDS011;16357;52.188;7.838;2022-12-29T05:47:50;1.00;;;0.50;;
29370;SDS011;16357;52.188;7.838;2022-12-29T05:50:17;2.70;;;0.60;;
29370;SDS011;16357;52.188;7.838;2022-12-29T05:52:43;2.00;;;0.70;;
29370;SDS011;16357;52.188;7.838;2022-12-29T05:55:10;2.05;;;0.80;;
29370;SDS011;16357;52.188;7.838;2022-12-29T05:57:37;2.80;;;0.50;;
29370;SDS011;16357;52.188;7.838;2022-12-29T06:00:04;1.13;;;0.60;;
29370;SDS011;16357;52.188;7.838;2022-12-29T06:02:31;1.15;;;0.63;;
29370;SDS011;16357;52.188;7.838;2022-12-29T06:04:58;1.23;;;0.43;;
29370;SDS011;16357;52.188;7.838;2022-12-29T06:07:24;1.10;;;0.60;;
29370;SDS011;16357;52.188;7.838;2022-12-29T06:09:51;0.90;;;0.47;;
29370;SDS011;16357;52.188;7.838;2022-12-29T06:12:17;1.10;;;0.65;;
29370;SDS011;16357;52.188;7.838;2022-12-29T06:14:44;2.70;;;0.80;;
29370;SDS011;16357;52.188;7.838;2022-12-29T06:17:10;0.70;;;0.47;;
29370;SDS011;16357;52.188;7.838;2022-12-29T06:19:36;2.92;;;0.57;;
29370;SDS011;16357;52.188;7.838;2022-12-29T06:22:03;3.17;;;0.68;;
29370;SDS011;16357;52.188;7.838;2022-12-29T06:24:29;0.95;;;0.50;;
29370;SDS011;16357;52.188;7.838;2022-12-29T06:26:56;0.85;;;0.60;;
29370;SDS011;16357;52.188;7.838;2022-12-29T06:29:22;2.83;;;0.45;;
29370;SDS011;16357;52.188;7.838;2022-12-29T06:31:49;3.30;;;0.80;;
29370;SDS011;16357;52.188;7.838;2022-12-29T06:34:17;1.50;;;0.60;;
29370;SDS011;16357;52.188;7.838;2022-12-29T06:36:43;6.13;;;1.02;;
29370;SDS011;16357;52.188;7.838;2022-12-29T06:39:10;2.95;;;0.80;;
29370;SDS011;16357;52.188;7.838;2022-12-29T06:41:36;1.60;;;0.60;;
29370;SDS011;16357;52.188;7.838;2022-12-29T06:44:04;2.78;;;0.93;;
29370;SDS011;16357;52.188;7.838;2022-12-29T06:46:30;3.17;;;1.00;;
29370;SDS011;16357;52.188;7.838;2022-12-29T06:48:57;4.07;;;0.90;;
29370;SDS011;16357;52.188;7.838;2022-12-29T06:51:23;4.35;;;1.20;;
29370;SDS011;16357;52.188;7.838;2022-12-29T06:53:50;1.27;;;0.65;;
29370;SDS011;16357;52.188;7.838;2022-12-29T06:56:16;2.80;;;1.02;;
29370;SDS011;16357;52.188;7.838;2022-12-29T06:58:42;2.50;;;0.70;;
29370;SDS011;16357;52.188;7.838;2022-12-29T07:01:09;1.88;;;0.85;;
29370;SDS011;16357;52.188;7.838;2022-12-29T07:03:36;4.07;;;0.80;;
29370;SDS011;16357;52.188;7.838;2022-12-29T07:06:02;2.85;;;0.80;;
29370;SDS011;16357;52.188;7.838;2022-12-29T07:08:29;5.03;;;1.10;;
29370;SDS011;16357;52.188;7.838;2022-12-29T07:10:55;1.80;;;0.70;;
29370;SDS011;16357;52.188;7.838;2022-12-29T07:13:22;2.15;;;0.90;;
29370;SDS011;16357;52.188;7.838;2022-12-29T07:15:48;3.40;;;0.85;;
29370;SDS011;16357;52.188;7.838;2022-12-29T07:18:14;4.50;;;1.15;;
29370;SDS011;16357;52.188;7.838;2022-12-29T07:20:42;4.15;;;0.88;;
29370;SDS011;16357;52.188;7.838;2022-12-29T07:23:08;2.25;;;0.70;;
29370;SDS011;16357;52.188;7.838;2022-12-29T07:25:35;5.50;;;0.95;;
29370;SDS011;16357;52.188;7.838;2022-12-29T07:28:02;2.80;;;1.00;;
29370;SDS011;16357;52.188;7.838;2022-12-29T07:30:29;2.25;;;0.90;;
29370;SDS011;16357;52.188;7.838;2022-12-29T07:32:56;1.55;;;1.05;;
29370;SDS011;16357;52.188;7.838;2022-12-29T07:35:23;3.10;;;1.00;;
29370;SDS011;16357;52.188;7.838;2022-12-29T07:37:49;3.83;;;1.10;;
29370;SDS011;16357;52.188;7.838;2022-12-29T07:40:16;3.17;;;0.95;;
29370;SDS011;16357;52.188;7.838;2022-12-29T07:42:44;4.47;;;1.40;;
29370;SDS011;16357;52.188;7.838;2022-12-29T07:45:10;5.18;;;1.20;;
29370;SDS011;16357;52.188;7.838;2022-12-29T07:47:36;5.53;;;1.27;;
29370;SDS011;16357;52.188;7.838;2022-12-29T07:50:03;2.67;;;0.98;;
29370;SDS011;16357;52.188;7.838;2022-12-29T07:52:30;2.25;;;0.80;;
29370;SDS011;16357;52.188;7.838;2022-12-29T07:54:57;3.03;;;1.00;;
29370;SDS011;16357;52.188;7.838;2022-12-29T07:57:23;3.47;;;1.02;;
29370;SDS011;16357;52.188;7.838;2022-12-29T07:59:57;5.25;;;1.27;;
29370;SDS011;16357;52.188;7.838;2022-12-29T08:02:23;6.03;;;1.00;;
29370;SDS011;16357;52.188;7.838;2022-12-29T08:04:50;2.80;;;1.05;;
29370;SDS011;16357;52.188;7.838;2022-12-29T08:07:16;2.90;;;1.00;;
29370;SDS011;16357;52.188;7.838;2022-12-29T08:09:42;2.85;;;0.90;;
29370;SDS011;16357;52.188;7.838;2022-12-29T08:12:12;3.10;;;0.95;;
29370;SDS011;16357;52.188;7.838;2022-12-29T08:14:38;3.85;;;1.27;;
29370;SDS011;16357;52.188;7.838;2022-12-29T08:17:04;4.10;;;1.00;;
29370;SDS011;16357;52.188;7.838;2022-12-29T08:19:31;2.95;;;1.02;;
29370;SDS011;16357;52.188;7.838;2022-12-29T08:21:57;3.03;;;1.17;;
29370;SDS011;16357;52.188;7.838;2022-12-29T08:24:24;3.90;;;1.38;;
29370;SDS011;16357;52.188;7.838;2022-12-29T08:26:50;4.38;;;1.02;;
29370;SDS011;16357;52.188;7.838;2022-12-29T08:29:17;5.22;;;1.00;;
29370;SDS011;16357;52.188;7.838;2022-12-29T08:31:43;4.13;;;0.90;;
29370;SDS011;16357;52.188;7.838;2022-12-29T08:34:10;4.38;;;0.85;;
29370;SDS011;16357;52.188;7.838;2022-12-29T08:36:36;2.15;;;0.85;;
29370;SDS011;16357;52.188;7.838;2022-12-29T08:39:03;8.57;;;1.42;;
29370;SDS011;16357;52.188;7.838;2022-12-29T08:41:29;5.03;;;1.10;;
29370;SDS011;16357;52.188;7.838;2022-12-29T08:43:56;3.63;;;1.20;;
29370;SDS011;16357;52.188;7.838;2022-12-29T08:46:23;5.45;;;1.00;;
29370;SDS011;16357;52.188;7.838;2022-12-29T08:48:49;3.55;;;1.10;;
29370;SDS011;16357;52.188;7.838;2022-12-29T08:51:16;4.35;;;1.02;;
29370;SDS011;16357;52.188;7.838;2022-12-29T08:53:49;4.30;;;1.25;;
29370;SDS011;16357;52.188;7.838;2022-12-29T08:56:16;4.97;;;1.20;;
29370;SDS011;16357;52.188;7.838;2022-12-29T08:58:43;2.85;;;1.00;;
29370;SDS011;16357;52.188;7.838;2022-12-29T09:01:10;6.20;;;1.30;;
29370;SDS011;16357;52.188;7.838;2022-12-29T09:03:36;4.97;;;1.25;;
29370;SDS011;16357;52.188;7.838;2022-12-29T09:06:23;3.13;;;1.15;;
29370;SDS011;16357;52.188;7.838;2022-12-29T09:08:50;5.75;;;1.42;;
29370;SDS011;16357;52.188;7.838;2022-12-29T09:11:17;4.85;;;1.33;;
29370;SDS011;16357;52.188;7.838;2022-12-29T09:13:46;2.65;;;1.23;;
29370;SDS011;16357;52.188;7.838;2022-12-29T09:16:13;5.72;;;1.20;;
29370;SDS011;16357;52.188;7.838;2022-12-29T09:18:41;3.70;;;1.17;;
29370;SDS011;16357;52.188;7.838;2022-12-29T09:21:09;4.13;;;1.40;;
29370;SDS011;16357;52.188;7.838;2022-12-29T09:23:36;4.93;;;1.33;;
29370;SDS011;16357;52.188;7.838;2022-12-29T09:26:04;8.50;;;1.70;;
29370;SDS011;16357;52.188;7.838;2022-12-29T09:28:30;3.40;;;1.15;;
29370;SDS011;16357;52.188;7.838;2022-12-29T09:30:58;4.40;;;1.30;;
29370;SDS011;16357;52.188;7.838;2022-12-29T09:33:24;6.45;;;1.70;;
29370;SDS011;16357;52.188;7.838;2022-12-29T09:35:53;5.97;;;1.40;;
29370;SDS011;16357;52.188;7.838;2022-12-29T09:38:24;4.70;;;1.38;;
29370;SDS011;16357;52.188;7.838;2022-12-29T09:40:53;2.92;;;1.05;;
29370;SDS011;16357;52.188;7.838;2022-12-29T09:46:14;5.10;;;1.70;;
29370;SDS011;16357;52.188;7.838;2022-12-29T09:49:33;5.20;;;1.20;;
29370;SDS011;16357;52.188;7.838;2022-12-29T09:51:46;6.25;;;1.30;;
29370;SDS011;16357;52.188;7.838;2022-12-29T09:56:54;6.20;;;1.38;;
29370;SDS011;16357;52.188;7.838;2022-12-29T09:59:24;5.85;;;1.30;;
29370;SDS011;16357;52.188;7.838;2022-12-29T10:02:14;5.95;;;1.42;;
29370;SDS011;16357;52.188;7.838;2022-12-29T10:04:43;3.20;;;1.13;;
29370;SDS011;16357;52.188;7.838;2022-12-29T10:07:12;7.80;;;1.50;;
29370;SDS011;16357;52.188;7.838;2022-12-29T10:10:00;6.32;;;1.80;;
29370;SDS011;16357;52.188;7.838;2022-12-29T10:18:36;7.75;;;1.60;;
29370;SDS011;16357;52.188;7.838;2022-12-29T10:21:23;7.10;;;1.35;;
29370;SDS011;16357;52.188;7.838;2022-12-29T10:24:03;4.40;;;1.10;;
29370;SDS011;16357;52.188;7.838;2022-12-29T10:26:36;5.30;;;1.30;;
29370;SDS011;16357;52.188;7.838;2022-12-29T10:29:12;5.63;;;1.45;;
29370;SDS011;16357;52.188;7.838;2022-12-29T10:31:45;10.20;;;2.03;;
29370;SDS011;16357;52.188;7.838;2022-12-29T10:37:00;6.93;;;1.40;;
29370;SDS011;16357;52.188;7.838;2022-12-29T10:39:59;6.32;;;1.40;;
29370;SDS011;16357;52.188;7.838;2022-12-29T10:42:39;5.32;;;1.27;;
29370;SDS011;16357;52.188;7.838;2022-12-29T10:45:14;5.57;;;1.30;;
29370;SDS011;16357;52.188;7.838;2022-12-29T10:47:53;4.13;;;1.13;;
29370;SDS011;16357;52.188;7.838;2022-12-29T10:50:30;5.75;;;1.42;;
29370;SDS011;16357;52.188;7.838;2022-12-29T10:53:00;5.43;;;1.58;;
29370;SDS011;16357;52.188;7.838;2022-12-29T10:55:32;4.25;;;1.65;;
29370;SDS011;16357;52.188;7.838;2022-12-29T10:58:02;4.15;;;1.48;;
29370;SDS011;16357;52.188;7.838;2022-12-29T11:00:31;2.20;;;1.20;;
29370;SDS011;16357;52.188;7.838;2022-12-29T11:06:01;3.03;;;1.17;;
29370;SDS011;16357;52.188;7.838;2022-12-29T11:08:38;6.07;;;1.70;;
29370;SDS011;16357;52.188;7.838;2022-12-29T11:11:11;5.78;;;1.63;;
29370;SDS011;16357;52.188;7.838;2022-12-29T11:13:48;3.92;;;1.40;;
29370;SDS011;16357;52.188;7.838;2022-12-29T11:16:32;6.13;;;1.60;;
29370;SDS011;16357;52.188;7.838;2022-12-29T11:19:00;4.70;;;1.27;;
29370;SDS011;16357;52.188;7.838;2022-12-29T11:21:36;2.90;;;1.10;;
29370;SDS011;16357;52.188;7.838;2022-12-29T11:24:18;4.30;;;1.73;;
29370;SDS011;16357;52.188;7.838;2022-12-29T11:26:54;7.32;;;1.38;;
29370;SDS011;16357;52.188;7.838;2022-12-29T11:29:38;5.35;;;1.38;;
29370;SDS011;16357;52.188;7.838;2022-12-29T11:32:17;4.85;;;1.92;;
29370;SDS011;16357;52.188;7.838;2022-12-29T11:34:53;6.75;;;1.52;;
29370;SDS011;16357;52.188;7.838;2022-12-29T11:37:22;4.47;;;1.40;;
29370;SDS011;16357;52.188;7.838;2022-12-29T11:45:19;5.30;;;1.67;;
29370;SDS011;16357;52.188;7.838;2022-12-29T11:47:53;5.65;;;1.38;;
29370;SDS011;16357;52.188;7.838;2022-12-29T11:50:29;8.05;;;1.88;;
29370;SDS011;16357;52.188;7.838;2022-12-29T11:53:16;4.22;;;1.45;;
29370;SDS011;16357;52.188;7.838;2022-12-29T11:55:56;6.35;;;1.40;;
29370;SDS011;16357;52.188;7.838;2022-12-29T11:58:29;6.63;;;1.60;;
29370;SDS011;16357;52.188;7.838;2022-12-29T12:01:11;3.95;;;1.33;;
29370;SDS011;16357;52.188;7.838;2022-12-29T12:04:26;4.90;;;1.52;;
29370;SDS011;16357;52.188;7.838;2022-12-29T12:06:44;5.80;;;1.42;;
29370;SDS011;16357;52.188;7.838;2022-12-29T12:09:29;6.80;;;1.50;;
29370;SDS011;16357;52.188;7.838;2022-12-29T12:12:01;3.80;;;1.08;;
29370;SDS011;16357;52.188;7.838;2022-12-29T12:17:18;6.28;;;1.70;;
29370;SDS011;16357;52.188;7.838;2022-12-29T12:20:36;6.35;;;1.50;;
29370;SDS011;16357;52.188;7.838;2022-12-29T12:23:01;4.28;;;1.30;;
29370;SDS011;16357;52.188;7.838;2022-12-29T12:25:38;5.50;;;2.08;;
29370;SDS011;16357;52.188;7.838;2022-12-29T12:28:17;5.95;;;2.03;;
29370;SDS011;16357;52.188;7.838;2022-12-29T12:30:58;6.20;;;1.85;;
29370;SDS011;16357;52.188;7.838;2022-12-29T12:33:28;5.90;;;1.90;;
29370;SDS011;16357;52.188;7.838;2022-12-29T12:44:20;5.07;;;1.67;;
29370;SDS011;16357;52.188;7.838;2022-12-29T12:47:07;8.00;;;2.17;;
29370;SDS011;16357;52.188;7.838;2022-12-29T12:50:18;4.97;;;1.25;;
29370;SDS011;16357;52.188;7.838;2022-12-29T12:58:30;3.47;;;1.33;;
29370;SDS011;16357;52.188;7.838;2022-12-29T13:01:14;2.35;;;1.08;;
29370;SDS011;16357;52.188;7.838;2022-12-29T13:03:47;3.63;;;1.27;;
29370;SDS011;16357;52.188;7.838;2022-12-29T13:06:25;6.07;;;1.80;;
29370;SDS011;16357;52.188;7.838;2022-12-29T13:09:13;6.13;;;1.70;;
29370;SDS011;16357;52.188;7.838;2022-12-29T13:16:56;7.35;;;1.83;;
29370;SDS011;16357;52.188;7.838;2022-12-29T13:19:36;7.03;;;1.92;;
29370;SDS011;16357;52.188;7.838;2022-12-29T13:27:17;5.13;;;1.63;;
29370;SDS011;16357;52.188;7.838;2022-12-29T13:30:02;6.40;;;1.75;;
29370;SDS011;16357;52.188;7.838;2022-12-29T13:33:05;4.13;;;1.50;;
29370;SDS011;16357;52.188;7.838;2022-12-29T13:38:36;8.52;;;2.15;;
29370;SDS011;16357;52.188;7.838;2022-12-29T13:41:09;9.13;;;1.90;;
29370;SDS011;16357;52.188;7.838;2022-12-29T13:43:40;6.22;;;1.58;;
29370;SDS011;16357;52.188;7.838;2022-12-29T13:46:14;5.97;;;1.92;;
29370;SDS011;16357;52.188;7.838;2022-12-29T13:51:15;5.07;;;1.77;;
29370;SDS011;16357;52.188;7.838;2022-12-29T13:54:00;7.30;;;1.60;;
29370;SDS011;16357;52.188;7.838;2022-12-29T13:56:52;6.05;;;2.17;;
29370;SDS011;16357;52.188;7.838;2022-12-29T14:00:04;5.72;;;1.35;;
29370;SDS011;16357;52.188;7.838;2022-12-29T14:05:36;3.78;;;1.30;;
29370;SDS011;16357;52.188;7.838;2022-12-29T14:08:05;3.92;;;1.50;;
29370;SDS011;16357;52.188;7.838;2022-12-29T14:10:50;9.00;;;1.83;;
29370;SDS011;16357;52.188;7.838;2022-12-29T14:13:22;5.18;;;1.77;;
29370;SDS011;16357;52.188;7.838;2022-12-29T14:15:52;4.90;;;1.35;;
29370;SDS011;16357;52.188;7.838;2022-12-29T14:18:21;3.67;;;1.23;;
29370;SDS011;16357;52.188;7.838;2022-12-29T14:23:29;5.30;;;1.45;;
29370;SDS011;16357;52.188;7.838;2022-12-29T14:28:43;5.70;;;1.50;;
29370;SDS011;16357;52.188;7.838;2022-12-29T14:33:41;7.10;;;1.77;;
29370;SDS011;16357;52.188;7.838;2022-12-29T14:36:52;7.22;;;1.95;;
29370;SDS011;16357;52.188;7.838;2022-12-29T14:42:05;7.63;;;1.88;;
29370;SDS011;16357;52.188;7.838;2022-12-29T14:44:32;5.97;;;1.85;;
29370;SDS011;16357;52.188;7.838;2022-12-29T14:47:05;7.68;;;1.70;;
29370;SDS011;16357;52.188;7.838;2022-12-29T14:49:40;5.22;;;1.80;;
29370;SDS011;16357;52.188;7.838;2022-12-29T14:52:14;8.15;;;1.90;;
29370;SDS011;16357;52.188;7.838;2022-12-29T14:54:44;6.25;;;2.00;;
29370;SDS011;16357;52.188;7.838;2022-12-29T14:57:22;4.00;;;1.55;;
29370;SDS011;16357;52.188;7.838;2022-12-29T14:59:54;6.00;;;1.80;;
29370;SDS011;16357;52.188;7.838;2022-12-29T15:02:27;5.97;;;1.70;;
29370;SDS011;16357;52.188;7.838;2022-12-29T15:05:01;8.50;;;1.87;;
29370;SDS011;16357;52.188;7.838;2022-12-29T15:07:29;7.28;;;1.98;;
29370;SDS011;16357;52.188;7.838;2022-12-29T15:09:58;8.75;;;1.88;;
29370;SDS011;16357;52.188;7.838;2022-12-29T15:15:43;10.43;;;2.90;;
29370;SDS011;16357;52.188;7.838;2022-12-29T15:18:23;6.75;;;2.85;;
29370;SDS011;16357;52.188;7.838;2022-12-29T15:20:57;8.23;;;2.95;;
29370;SDS011;16357;52.188;7.838;2022-12-29T15:23:25;6.07;;;2.17;;
29370;SDS011;16357;52.188;7.838;2022-12-29T15:25:54;8.65;;;2.10;;
29370;SDS011;16357;52.188;7.838;2022-12-29T15:28:23;7.40;;;2.15;;
29370;SDS011;16357;52.188;7.838;2022-12-29T15:30:54;6.70;;;2.22;;
29370;SDS011;16357;52.188;7.838;2022-12-29T15:33:24;4.70;;;1.85;;
29370;SDS011;16357;52.188;7.838;2022-12-29T15:35:54;7.15;;;2.15;;
29370;SDS011;16357;52.188;7.838;2022-12-29T15:38:23;4.70;;;2.00;;
29370;SDS011;16357;52.188;7.838;2022-12-29T15:41:00;7.47;;;1.85;;
29370;SDS011;16357;52.188;7.838;2022-12-29T15:43:41;5.72;;;2.08;;
29370;SDS011;16357;52.188;7.838;2022-12-29T15:46:16;6.70;;;1.70;;
29370;SDS011;16357;52.188;7.838;2022-12-29T15:48:43;3.45;;;1.60;;
29370;SDS011;16357;52.188;7.838;2022-12-29T15:53:42;4.22;;;1.40;;
29370;SDS011;16357;52.188;7.838;2022-12-29T15:56:13;6.85;;;1.48;;
29370;SDS011;16357;52.188;7.838;2022-12-29T15:58:41;4.40;;;1.42;;
29370;SDS011;16357;52.188;7.838;2022-12-29T16:01:23;6.93;;;1.85;;
29370;SDS011;16357;52.188;7.838;2022-12-29T16:03:55;5.18;;;1.85;;
29370;SDS011;16357;52.188;7.838;2022-12-29T16:06:31;2.88;;;1.30;;
29370;SDS011;16357;52.188;7.838;2022-12-29T16:09:16;3.25;;;1.10;;
29370;SDS011;16357;52.188;7.838;2022-12-29T16:11:50;4.93;;;1.50;;
29370;SDS011;16357;52.188;7.838;2022-12-29T16:14:20;3.55;;;1.38;;
29370;SDS011;16357;52.188;7.838;2022-12-29T16:16:51;4.47;;;1.35;;
29370;SDS011;16357;52.188;7.838;2022-12-29T16:19:19;4.63;;;1.67;;
29370;SDS011;16357;52.188;7.838;2022-12-29T16:21:55;5.05;;;2.30;;
29370;SDS011;16357;52.188;7.838;2022-12-29T16:24:25;3.75;;;1.45;;
29370;SDS011;16357;52.188;7.838;2022-12-29T16:27:07;2.45;;;1.05;;
29370;SDS011;16357;52.188;7.838;2022-12-29T16:29:46;3.60;;;1.17;;
29370;SDS011;16357;52.188;7.838;2022-12-29T16:32:44;2.85;;;1.08;;
29370;SDS011;16357;52.188;7.838;2022-12-29T16:35:22;2.80;;;1.10;;
29370;SDS011;16357;52.188;7.838;2022-12-29T16:40:54;2.40;;;1.10;;
29370;SDS011;16357;52.188;7.838;2022-12-29T16:51:15;3.58;;;1.38;;
29370;SDS011;16357;52.188;7.838;2022-12-29T16:53:47;3.90;;;1.15;;
29370;SDS011;16357;52.188;7.838;2022-12-29T16:56:17;6.50;;;2.70;;
29370;SDS011;16357;52.188;7.838;2022-12-29T17:01:55;5.68;;;1.70;;
29370;SDS011;16357;52.188;7.838;2022-12-29T17:04:23;5.55;;;2.05;;
29370;SDS011;16357;52.188;7.838;2022-12-29T17:06:49;3.97;;;1.85;;
29370;SDS011;16357;52.188;7.838;2022-12-29T17:09:22;5.03;;;1.80;;
29370;SDS011;16357;52.188;7.838;2022-12-29T17:11:51;3.70;;;1.40;;
29370;SDS011;16357;52.188;7.838;2022-12-29T17:14:30;4.07;;;2.10;;
29370;SDS011;16357;52.188;7.838;2022-12-29T17:17:19;7.45;;;2.63;;
29370;SDS011;16357;52.188;7.838;2022-12-29T17:19:51;6.57;;;2.20;;
29370;SDS011;16357;52.188;7.838;2022-12-29T17:22:21;7.32;;;3.83;;